Terminal Aerodrome Forecast
Issued by NWS

Home | Current Version | Previous Version | Text Only | Print | Product List | Glossary On
Versions: 1 2 3 4 5 6 7 8 9 10 11 12 13 14 15 16
518
FTPA31 PHFO 212321
TAFHTO
TAF
PHTO 212321Z 2200/2224 03008KT P6SM FEW025 SCT045 BKN070
     FM220400 VRB05KT P6SM SCT025 BKN045 OVC070
     FM220800 24005KT P6SM VCSH BKN020 OVC040
      TEMPO 2210/2214 4SM SHRA
     FM222100 12008KT P6SM -SHRA SCT020 BKN040 OVC060=

USA.gov is the U.S. government's official web portal to all federal, state and local government web resources and services.